Airfield :
LOGIN :

Register | Disclaimer

   EN    FR    IT 

 










Legend :    VFR   Marginal VFR   IFR   Intensive IFR   Very Intensive IFR
Visi :
Ceiling :
>= 8 km
>= 3000ft
5 to 8 km
1000 to 3000 ft
1500m to 5 km
500 to 1000 ft
800 to 1500m
200 to 500 ft
< 800m
< 200 ft
Symbols :   Thunderstorms  Fog  Heavy snow  Heavy precipitations  Wind > 20 kt
SIGMETs :     Misc.  Thunderstorms  Icing  Turbulence  Mountain Waves  Volcanic Ashes






- Airport Elevation : 584 ft


LFPV - Villacoublay Vélizy

CURRENT METAR :
  • 282300Z AUTO 25010KT 9999 FEW024 SCT029 BKN034 04/02 Q1007 TEMPO 27020G35KT

EXPIRED METARs :
  • 282230Z AUTO 26013KT CAVOK 04/02 Q1007 TEMPO 27020G35KT
  • 282200Z AUTO 26014KT 9999 FEW035 04/02 Q1007 TEMPO 27020G35KT
  • 282130Z AUTO 26012KT 9999 FEW021 04/02 Q1006 TEMPO 27020G35KT
  • 282100Z AUTO 26014KT 9999 BKN022 OVC031 05/02 Q1006 TEMPO 27020G35KT 4500 -SHRA SCT012 BKN020TCU
  • 282030Z AUTO 27015KT 9999 BKN025 BKN041 BKN047 05/02 Q1006 TEMPO 27020G35KT 4500 -SHRA SCT012 BKN020TCU
  • 282000Z AUTO 27016KT CAVOK 05/02 Q1006 TEMPO 26015G35KT 4500 -SHRA SCT012 BKN020TCU

TAF TAF LFPV
Valid from the 28 at 21:00 until the 29 at 21:00 UTC


282000Z 2821/2921 27015G25KT 9999 SCT030
TEMPO 2821/2824 27020G35KT
PROB40
TEMPO 2821/2822 4500 -SHRA SCT012 BKN020TCU
BECMG 2900/2901 26010KT
TEMPO 2901/2916 26010G20KT
TEMPO 2905/2909 BKN010



MET'MAP, your aeronautical weather chart ! - Copyright ORBIFLY December 2007 - Disclaimer

ORBIFLY MET'MAP TEAM :

Programming & Development : Alexandra Zaïnal
Concept & original design : Baudouin d'Aumeries
Assistance for programming : Marc-Olivier Méhu
Technical & hardware support : Manuel Goepfert

Contact : metmap@orbifly.com




SOURCES & CREDITS :

   NOAA